Time;durP1;ratioP1;P1;durP2;ratioP2;P2;SDS_P1;SDS_P2;PMS_P1;PMS_P2;Temp;Humidity;BMP_temperature;BMP_pressure;BME280_temperature;BME280_humidity;BME280_pressure;Samples;Min_cycle;Max_cycle;Signal;HPM_P1;HPM_P2
2023/06/14 11:43:41;;;;;;;5.05;2.95;;;;;;;26.34;47.47;100436.65;1867878;76;27346;-54
2023/06/14 11:46:21;;;;;;;7.03;2.67;;;;;;;26.08;46.09;100433.37;1824490;78;25546;-55
2023/06/14 11:48:45;;;;;;;5.60;2.60;;;;;;;26.01;46.06;100433.42;1824036;78;28088;-54
2023/06/14 11:51:12;;;;;;;3.90;2.70;;;;;;;26.01;46.08;100426.49;1824373;78;25373;-56
2023/06/14 11:53:39;;;;;;;2.83;2.27;;;;;;;26.35;45.52;100427.11;1824452;78;25546;-55
2023/06/14 11:56:06;;;;;;;5.33;4.83;;;;;;;26.54;44.49;100429.08;1824434;78;25419;-55
2023/06/14 11:58:32;;;;;;;18.10;17.07;;;;;;;26.43;43.67;100423.67;1824511;78;25442;-52
2023/06/14 12:00:58;;;;;;;42.67;40.17;;;;;;;26.55;43.84;100426.50;1824439;78;27469;-52
2023/06/14 12:03:31;;;;;;;38.67;36.50;;;;;;;26.79;43.65;100423.23;1824320;78;25790;-52
2023/06/14 12:06:08;;;;;;;12.60;11.48;;;;;;;27.10;43.61;100425.97;1823059;78;25438;-52
2023/06/14 12:08:41;;;;;;;5.78;2.12;;;;;;;27.44;42.63;100419.52;1824419;78;25406;-50
2023/06/14 12:11:06;;;;;;;7.70;2.67;;;;;;;27.76;42.47;100421.13;1823116;78;25506;-50
2023/06/14 12:13:32;;;;;;;9.05;2.62;;;;;;;27.83;41.55;100423.00;1824433;78;27487;-50
2023/06/14 12:15:58;;;;;;;43.50;40.98;;;;;;;27.57;40.95;100430.99;1824341;78;25566;-57
2023/06/14 12:18:35;;;;;;;44.50;41.92;;;;;;;27.49;40.98;100424.59;1824407;78;25605;-51
2023/06/14 12:21:06;;;;;;;7.20;2.35;;;;;;;27.44;40.43;100419.52;1824413;78;25458;-52
2023/06/14 12:23:50;;;;;;;4.05;2.47;;;;;;;27.21;39.64;100421.83;1823912;78;25372;-54
2023/06/14 12:26:19;;;;;;;2.33;1.85;;;;;;;27.01;39.88;100417.55;1824426;78;27387;-52
2023/06/14 12:28:47;;;;;;;5.47;2.40;;;;;;;26.95;39.90;100416.47;1824596;78;25534;-51
2023/06/14 12:31:15;;;;;;;33.33;31.48;;;;;;;26.89;39.76;100410.42;1824556;78;25607;-50
2023/06/14 12:33:43;;;;;;;6.97;3.67;;;;;;;26.98;39.55;100414.84;1824506;78;25574;-50
2023/06/14 12:36:10;;;;;;;6.42;5.85;;;;;;;26.73;39.01;100411.02;1824454;78;25385;-50
2023/06/14 12:38:38;;;;;;;65.30;61.70;;;;;;;26.35;39.09;100406.92;1824414;78;27464;-51
2023/06/14 12:41:04;;;;;;;67.90;63.87;;;;;;;26.20;39.01;100401.53;1824291;78;25729;-51
2023/06/14 12:43:30;;;;;;;67.75;63.75;;;;;;;26.21;39.28;100403.12;1824292;77;25485;-51
2023/06/14 12:45:57;;;;;;;66.15;62.45;;;;;;;26.27;39.93;100400.67;1824233;78;25528;-51
2023/06/14 12:48:23;;;;;;;9.40;9.00;;;;;;;26.47;39.84;100397.45;1822941;78;25604;-50
2023/06/14 12:50:49;;;;;;;9.28;8.85;;;;;;;;;;1822920;78;27474;-51
2023/06/14 12:53:16;;;;;;;9.23;8.83;;;;;;;;;;1824112;78;25931;-49
2023/06/14 12:55:44;;;;;;;7.58;3.35;;;;;;;;;;1823956;78;25449;-51
2023/06/14 12:58:14;;;;;;;5.28;3.08;;;;;;;;;;1823810;78;25375;-51
2023/06/14 13:00:41;;;;;;;4.08;2.20;;;;;;;;;;1823875;78;25488;-52
2023/06/14 13:03:09;;;;;;;3.92;2.20;;;;;;;;;;1823817;78;27425;-51
2023/06/14 13:05:37;;;;;;;6.78;2.90;;;;;;;;;;1823912;78;25379;-50
2023/06/14 13:08:04;;;;;;;2.90;2.50;;;;;;;;;;1823804;78;25398;-51
2023/06/14 13:10:31;;;;;;;65.97;62.40;;;;;;;;;;1823803;78;25441;-49
2023/06/14 13:12:59;;;;;;;2.60;2.15;;;;;;;;;;1823823;78;25433;-53
2023/06/14 13:15:27;;;;;;;3.77;2.52;;;;;;;;;;1823996;78;27390;-58
2023/06/14 13:17:55;;;;;;;15.32;12.73;;;;;;;;;;1823740;78;25498;-56
2023/06/14 13:20:22;;;;;;;38.98;34.60;;;;;;;;;;1823810;78;25446;-56
2023/06/14 13:22:49;;;;;;;8.03;4.05;;;;;;;;;;1823761;78;25429;-56
2023/06/14 13:25:16;;;;;;;3.83;2.20;;;;;;;;;;1823871;78;25341;-54
2023/06/14 13:27:43;;;;;;;2.22;2.02;;;;;;;;;;1823793;78;27351;-50
2023/06/14 13:30:11;;;;;;;48.90;46.23;;;;;;;;;;1823753;78;25325;-50
2023/06/14 13:32:38;;;;;;;4.95;4.75;;;;;;;;;;1823949;78;25553;-50
2023/06/14 13:35:06;;;;;;;66.17;62.70;;;;;;;;;;1823745;78;25505;-50
2023/06/14 13:37:33;;;;;;;;;;;;;;;;;;1826598;78;25338;-52
2023/06/14 13:40:00;;;;;;;65.25;61.65;;;;;;;;;;1823773;78;29638;-50
2023/06/14 13:42:31;;;;;;;63.70;60.28;;;;;;;;;;1823589;78;25280;-48
2023/06/14 13:44:58;;;;;;;66.30;62.80;;;;;;;;;;1823642;78;25493;-50
2023/06/14 13:47:26;;;;;;;68.07;64.10;;;;;;;;;;1823917;78;25795;-49
2023/06/14 13:49:53;;;;;;;67.62;63.58;;;;;;;;;;1823815;78;25522;-52
2023/06/14 13:52:20;;;;;;;66.05;62.48;;;;;;;;;;1823757;78;29611;-49
2023/06/14 13:54:48;;;;;;;64.80;61.42;;;;;;;;;;1823706;78;25526;-49
2023/06/14 13:57:15;;;;;;;65.42;61.75;;;;;;;;;;1823772;78;25356;-53
2023/06/14 13:59:43;;;;;;;63.78;60.23;;;;;;;;;;1823719;78;25481;-53
2023/06/14 14:02:12;;;;;;;64.12;60.73;;;;;;;;;;1823939;78;25342;-49
2023/06/14 14:04:39;;;;;;;67.00;63.30;;;;;;;;;;1824041;78;27751;-50
2023/06/14 14:07:07;;;;;;;3.22;2.20;;;;;;;;;;1823656;78;25430;-53
2023/06/14 14:09:35;;;;;;;34.70;32.73;;;;;;;;;;1823779;78;25401;-49
2023/06/14 14:12:04;;;;;;;65.35;61.75;;;;;;;;;;1823788;78;25831;-49
2023/06/14 14:14:32;;;;;;;64.50;60.80;;;;;;;;;;1824006;78;25335;-50
2023/06/14 14:17:01;;;;;;;64.70;61.20;;;;;;;;;;1823906;78;27402;-49
2023/06/14 14:19:28;;;;;;;65.37;61.68;;;;;;;;;;1823798;78;25396;-49
2023/06/14 14:21:55;;;;;;;66.47;62.88;;;;;;;;;;1823742;78;25470;-50
2023/06/14 14:24:22;;;;;;;65.72;62.08;;;;;;;;;;1823760;78;25456;-49
2023/06/14 14:26:49;;;;;;;67.03;63.00;;;;;;;;;;1823751;78;25425;-50
2023/06/14 14:29:17;;;;;;;63.90;60.40;;;;;;;;;;1823771;78;27405;-49
2023/06/14 14:31:44;;;;;;;65.75;62.13;;;;;;;;;;1823692;78;25474;-48
2023/06/14 14:34:11;;;;;;;66.12;62.23;;;;;;;;;;1823756;78;25460;-49
2023/06/14 14:36:42;;;;;;;27.13;25.17;;;;;;;;;;1823614;78;25457;-48
2023/06/14 14:39:06;;;;;;;;;;;;;;;;;;1826161;78;25445;-48
2023/06/14 14:41:34;;;;;;;68.17;63.70;;;;;;;;;;1823743;78;27766;-49
2023/06/14 14:44:02;;;;;;;67.50;63.40;;;;;;;;;;1823599;77;25277;-48
2023/06/14 14:46:29;;;;;;;4.90;3.00;;;;;;;;;;1823871;78;25442;-48
2023/06/14 14:48:56;;;;;;;63.65;60.25;;;;;;;;;;1823713;78;25167;-48
2023/06/14 14:51:23;;;;;;;58.20;54.93;;;;;;;;;;1823728;78;25521;-48
2023/06/14 14:53:51;;;;;;;68.37;64.40;;;;;;;;;;1823703;78;27418;-48
2023/06/14 14:56:18;;;;;;;67.15;63.25;;;;;;;;;;1823657;78;25446;-48
2023/06/14 14:58:45;;;;;;;67.47;63.63;;;;;;;;;;1823715;78;25496;-49
2023/06/14 15:01:12;;;;;;;66.85;63.15;;;;;;;;;;1823710;78;25841;-49
2023/06/14 15:03:39;;;;;;;2.95;2.22;;;;;;;;;;1823748;78;25346;-48
2023/06/14 15:06:06;;;;;;;4.78;3.30;;;;;;;;;;1823761;78;27354;-47
2023/06/14 15:08:32;;;;;;;7.33;3.85;;;;;;;;;;1823708;78;25508;-48
2023/06/14 15:11:00;;;;;;;6.42;4.25;;;;;;;;;;1823757;78;25482;-47
2023/06/14 15:13:28;;;;;;;5.90;4.47;;;;;;;;;;1823704;78;25505;-51
2023/06/14 15:15:56;;;;;;;35.77;31.87;;;;;;;;;;1824002;78;25497;-47
2023/06/14 15:18:23;;;;;;;75.87;71.07;;;;;;;;;;1823673;78;29499;-49
2023/06/14 15:20:49;;;;;;;5.05;3.58;;;;;;;;;;1823649;78;25433;-48
2023/06/14 15:23:19;;;;;;;7.92;3.90;;;;;;;;;;1823653;78;25269;-51
2023/06/14 15:25:49;;;;;;;9.85;9.13;;;;;;;;;;1823836;78;25473;-49
2023/06/14 15:28:16;;;;;;;6.22;3.62;;;;;;;;;;1823758;78;25482;-48
2023/06/14 15:30:43;;;;;;;25.85;24.37;;;;;;;;;;1823714;78;28039;-48
2023/06/14 15:33:10;;;;;;;69.70;65.40;;;;;;;;;;1823714;78;25335;-49
2023/06/14 15:35:37;;;;;;;70.50;66.25;;;;;;;;;;1823808;78;25489;-47
2023/06/14 15:38:04;;;;;;;73.95;69.27;;;;;;;;;;1823681;78;25277;-48
2023/06/14 15:40:31;;;;;;;71.10;67.08;;;;;;;;;;1823773;78;25284;-51
2023/06/14 15:42:58;;;;;;;6.67;5.55;;;;;;;;;;1824496;77;27379;-47
2023/06/14 15:45:25;;;;;;;5.45;3.37;;;;;;;;;;1829805;78;25344;-49
2023/06/14 15:47:52;;;;;;;6.22;4.80;;;;;;;;;;1829881;78;25441;-48
2023/06/14 15:50:19;;;;;;;6.60;5.08;;;;;;;;;;1829706;78;25481;-48
2023/06/14 15:52:47;;;;;;;9.18;8.25;;;;;;;;;;1829775;78;25288;-48
2023/06/14 15:55:14;;;;;;;74.77;70.40;;;;;;;;;;1829783;78;28294;-48
2023/06/14 15:57:41;;;;;;;5.25;4.47;;;;;;;;;;1829697;78;25485;-47
2023/06/14 16:00:10;;;;;;;6.53;4.65;;;;;;;;;;1829752;78;25437;-49
2023/06/14 16:02:37;;;;;;;54.93;51.48;;;;;;;;;;1829833;78;26140;-47
2023/06/14 16:05:05;;;;;;;5.80;4.25;;;;;;;;;;1829793;77;25375;-47
2023/06/14 16:07:32;;;;;;;8.35;7.40;;;;;;;;;;1829765;77;27348;-49
2023/06/14 16:09:59;;;;;;;74.72;69.97;;;;;;;;;;1829766;78;25504;-47
2023/06/14 16:12:26;;;;;;;41.50;38.55;;;;;;;;;;1829797;78;25454;-47
2023/06/14 16:14:54;;;;;;;77.95;73.20;;;;;;;;;;1829763;78;25492;-47
2023/06/14 16:17:21;;;;;;;77.10;71.85;;;;;;;;;;1829798;77;25275;-45
2023/06/14 16:19:48;;;;;;;87.10;80.70;;;;;;;;;;1829747;78;27412;-46
2023/06/14 16:22:15;;;;;;;83.78;78.57;;;;;;;;;;1829674;78;25614;-46
2023/06/14 16:24:42;;;;;;;65.37;61.33;;;;;;;;;;1829851;78;25283;-46
2023/06/14 16:27:10;;;;;;;78.07;73.10;;;;;;;;;;1829737;77;25576;-46
2023/06/14 16:29:37;;;;;;;20.32;18.67;;;;;;;;;;1830164;78;25455;-46
2023/06/14 16:32:06;;;;;;;28.52;26.35;;;;;;;;;;1829967;78;27680;-47
2023/06/14 16:34:35;;;;;;;64.75;60.17;;;;;;;;;;1830029;78;25275;-44
2023/06/14 16:37:04;;;;;;;84.17;78.72;;;;;;;;;;1830419;78;25481;-45
2023/06/14 16:39:30;;;;;;;82.35;76.95;;;;;;;;;;1830179;78;25511;-47
2023/06/14 16:41:57;;;;;;;79.27;74.20;;;;;;;;;;1830344;78;25346;-47
2023/06/14 16:44:25;;;;;;;17.73;16.35;;;;;;;;;;1826215;77;27397;-46
2023/06/14 16:46:52;;;;;;;79.47;74.58;;;;;;;;;;1823380;78;25767;-45
2023/06/14 16:49:19;;;;;;;79.50;74.37;;;;;;;;;;1822284;78;25580;-45
2023/06/14 16:51:47;;;;;;;75.75;71.05;;;;;;;;;;1822818;78;25860;-47
2023/06/14 16:54:14;;;;;;;78.35;73.33;;;;;;;;;;1823804;78;25450;-47
2023/06/14 16:56:41;;;;;;;77.50;72.47;;;;;;;;;;1823851;78;27434;-45
2023/06/14 16:59:08;;;;;;;23.30;20.62;;;;;;;;;;1823707;78;25489;-49
2023/06/14 17:01:35;;;;;;;62.30;57.93;;;;;;;;;;1823814;78;25430;-47
2023/06/14 17:04:02;;;;;;;78.72;73.85;;;;;;;;;;1823791;78;25517;-48
2023/06/14 17:06:30;;;;;;;77.08;72.12;;;;;;;;;;1823871;78;25504;-48
2023/06/14 17:08:57;;;;;;;78.40;73.12;;;;;;;;;;1823858;78;28002;-48
2023/06/14 17:11:24;;;;;;;48.63;45.25;;;;;;;;;;1823755;78;25421;-47
2023/06/14 17:13:52;;;;;;;76.55;71.53;;;;;;;;;;1823929;78;25308;-46
2023/06/14 17:16:19;;;;;;;77.97;73.05;;;;;;;;;;1823810;78;25460;-48
2023/06/14 17:18:46;;;;;;;77.75;72.75;;;;;;;;;;1823830;78;25481;-50
2023/06/14 17:21:16;;;;;;;53.00;49.35;;;;;;;;;;1823800;78;27361;-46
2023/06/14 17:23:43;;;;;;;76.92;71.97;;;;;;;;;;1823655;78;25355;-47
2023/06/14 17:26:11;;;;;;;77.15;72.32;;;;;;;;;;1823848;78;25328;-48
2023/06/14 17:28:38;;;;;;;77.10;72.30;;;;;;;;;;1823834;78;25516;-46
2023/06/14 17:31:06;;;;;;;73.45;68.65;;;;;;;;;;1823853;78;25281;-49
2023/06/14 17:33:33;;;;;;;69.67;65.35;;;;;;;;;;1823801;78;27367;-47
2023/06/14 17:36:00;;;;;;;78.30;73.30;;;;;;;;;;1822763;78;25535;-50
2023/06/14 17:38:29;;;;;;;107.87;99.42;;;;;;;;;;1801713;78;25894;-50
2023/06/14 17:40:58;;;;;;;70.67;65.10;;;;;;;;;;1822363;78;26040;-46
2023/06/14 17:43:25;;;;;;;21.35;19.42;;;;;;;;;;1822945;78;25485;-49
2023/06/14 17:45:52;;;;;;;25.97;23.60;;;;;;;;;;1828738;77;27400;-46
2023/06/14 17:48:19;;;;;;;79.55;74.45;;;;;;;;;;1828650;77;25557;-49
2023/06/14 17:50:47;;;;;;;85.62;79.55;;;;;;;;;;1829134;78;25774;-45
2023/06/14 17:53:15;;;;;;;87.10;81.20;;;;;;;;;;1829820;77;25629;-48
2023/06/14 17:55:42;;;;;;;78.70;73.70;;;;;;;;;;1829920;77;25450;-48
2023/06/14 17:58:09;;;;;;;71.02;66.33;;;;;;;;;;1829865;78;27411;-49
2023/06/14 18:00:36;;;;;;;78.65;73.42;;;;;;;;;;1829857;78;25524;-48
2023/06/14 18:03:03;;;;;;;79.00;74.03;;;;;;;;;;1829918;77;25328;-49
2023/06/14 18:05:30;;;;;;;11.48;6.22;;;;;;;;;;1829809;78;26551;-47
2023/06/14 18:07:57;;;;;;;10.28;5.95;;;;;;;;;;1829913;77;25350;-47
2023/06/14 18:10:26;;;;;;;29.20;27.17;;;;;;;;;;1829813;77;27388;-46
2023/06/14 18:12:54;;;;;;;24.82;22.77;;;;;;;;;;1829907;78;25589;-53
2023/06/14 18:15:21;;;;;;;44.30;40.75;;;;;;;;;;1829893;78;25390;-46
2023/06/14 18:17:52;;;;;;;8.78;7.08;;;;;;;;;;1829867;78;26127;-49
2023/06/14 18:20:19;;;;;;;29.48;27.17;;;;;;;;;;1829869;78;25276;-48
2023/06/14 18:22:48;;;;;;;12.82;11.55;;;;;;;;;;1829798;77;27412;-46
2023/06/14 18:25:21;;;;;;;9.95;6.40;;;;;;;;;;1829769;77;25456;-46
2023/06/14 18:27:48;;;;;;;77.95;72.90;;;;;;;;;;1829854;78;25316;-48
2023/06/14 18:30:17;;;;;;;49.65;45.75;;;;;;;;;;1829831;78;25842;-46
2023/06/14 18:32:47;;;;;;;79.40;74.25;;;;;;;;;;1830003;77;32147;-46
2023/06/14 18:35:15;;;;;;;49.65;45.95;;;;;;;;;;1829850;77;27927;-46
2023/06/14 18:37:43;;;;;;;79.77;74.58;;;;;;;;;;1829793;77;25292;-46
2023/06/14 18:40:11;;;;;;;77.65;72.55;;;;;;;;;;1829875;77;25478;-45
2023/06/14 18:42:39;;;;;;;80.03;74.87;;;;;;;;;;1830079;78;25561;-48
2023/06/14 18:45:08;;;;;;;35.63;33.02;;;;;;;;;;1826177;77;25288;-45
2023/06/14 18:47:36;;;;;;;17.03;15.63;;;;;;;;;;1824108;78;27531;-46
2023/06/14 18:50:04;;;;;;;75.25;70.50;;;;;;;;;;1823663;78;25319;-44
2023/06/14 18:52:31;;;;;;;79.23;73.97;;;;;;;;;;1823999;78;25338;-44
2023/06/14 18:54:59;;;;;;;58.08;53.83;;;;;;;;;;1823179;78;25542;-45
2023/06/14 18:57:26;;;;;;;80.92;75.65;;;;;;;;;;1823775;78;25432;-46
2023/06/14 18:59:53;;;;;;;89.95;82.55;;;;;;;;;;1823716;78;28611;-43
2023/06/14 19:02:20;;;;;;;90.45;84.10;;;;;;;;;;1823620;78;25506;-45
2023/06/14 19:04:47;;;;;;;20.70;18.62;;;;;;;;;;1823783;78;25261;-47
2023/06/14 19:07:14;;;;;;;81.90;76.07;;;;;;;;;;1823721;78;26251;-45
2023/06/14 19:09:41;;;;;;;29.90;27.22;;;;;;;;;;1823780;78;25298;-49
2023/06/14 19:12:10;;;;;;;79.95;74.85;;;;;;;;;;1823748;78;27343;-45
2023/06/14 19:14:37;;;;;;;55.43;51.15;;;;;;;;;;1823777;78;25496;-44
2023/06/14 19:17:06;;;;;;;81.35;76.25;;;;;;;;;;1823715;78;25393;-47
2023/06/14 19:19:34;;;;;;;79.22;74.15;;;;;;;;;;1823773;78;26137;-49
2023/06/14 19:22:01;;;;;;;71.70;66.57;;;;;;;;;;1823651;78;25339;-47
2023/06/14 19:24:29;;;;;;;79.62;74.53;;;;;;;;;;1823679;78;27416;-45
2023/06/14 19:26:57;;;;;;;83.45;78.00;;;;;;;;;;1823579;78;25351;-50
2023/06/14 19:29:24;;;;;;;84.50;78.52;;;;;;;;;;1823672;78;25495;-49
2023/06/14 19:31:53;;;;;;;92.50;85.57;;;;;;;;;;1823669;78;25857;-50
2023/06/14 19:34:20;;;;;;;82.15;76.85;;;;;;;;;;1823895;78;25327;-51
2023/06/14 19:36:47;;;;;;;59.03;54.95;;;;;;;;;;1823798;78;27420;-50
2023/06/14 19:39:14;;;;;;;77.80;72.53;;;;;;;;;;1823725;78;25328;-49
2023/06/14 19:41:45;;;;;;;82.12;76.87;;;;;;;;;;1823685;78;25358;-49
2023/06/14 19:44:11;;;;;;;;;;;;;;;;;;1826831;78;25553;-51
2023/06/14 19:46:38;;;;;;;83.17;77.92;;;;;;;;;;1829896;77;25277;-50
2023/06/14 19:49:05;;;;;;;82.92;77.53;;;;;;;;;;1829805;77;27354;-54
2023/06/14 19:51:33;;;;;;;80.70;75.37;;;;;;;;;;1829741;78;25435;-53
2023/06/14 19:53:59;;;;;;;80.75;75.52;;;;;;;;;;1829749;78;25420;-53
2023/06/14 19:56:27;;;;;;;37.05;34.33;;;;;;;;;;1829798;78;25571;-52
2023/06/14 19:58:55;;;;;;;82.12;76.70;;;;;;;;;;1829798;77;25451;-55
2023/06/14 20:01:22;;;;;;;82.62;77.15;;;;;;;;;;1829822;77;27422;-52
2023/06/14 20:03:49;;;;;;;80.90;75.22;;;;;;;;;;1797343;78;27300;-56
2023/06/14 20:06:16;;;;;;;83.03;77.27;;;;;;;;;;1797327;79;25486;-54
2023/06/14 20:08:43;;;;;;;20.37;18.42;;;;;;;;;;1797302;79;26116;-52
2023/06/14 20:11:10;;;;;;;82.22;76.70;;;;;;;;;;1797415;79;25289;-55
2023/06/14 20:13:38;;;;;;;79.87;74.37;;;;;;;;;;1797311;79;29555;-53
2023/06/14 20:16:05;;;;;;;85.92;80.15;;;;;;;;;;1797257;79;25471;-55
2023/06/14 20:18:33;;;;;;;84.87;78.83;;;;;;;;;;1797310;79;25486;-51
2023/06/14 20:21:02;;;;;;;17.48;13.43;;;;;;;;;;1797310;79;25498;-54
2023/06/14 20:23:29;;;;;;;32.08;29.12;;;;;;;;;;1797419;79;25517;-53
2023/06/14 20:25:57;;;;;;;14.23;8.60;;;;;;;;;;1797356;79;28436;-53
2023/06/14 20:28:24;;;;;;;9.53;7.78;;;;;;;;;;1797237;79;25331;-52
2023/06/14 20:30:51;;;;;;;9.45;8.33;;;;;;;;;;1797327;79;25460;-54
2023/06/14 20:33:17;;;;;;;13.43;8.50;;;;;;;;;;1797272;79;25538;-52
2023/06/14 20:35:45;;;;;;;12.85;8.60;;;;;;;;;;1797306;79;25249;-55
2023/06/14 20:38:12;;;;;;;62.78;58.58;;;;;;;;;;1797298;79;27297;-55
2023/06/14 20:40:40;;;;;;;33.53;25.17;;;;;;;;;;1797219;79;25452;-53
2023/06/14 20:43:12;;;;;;;42.90;30.97;;;;;;;;;;1797300;79;25285;-56
2023/06/14 20:45:36;;;;;;;56.80;40.25;;;;;;;;;;1793912;78;25576;-54
2023/06/14 20:48:04;;;;;;;16.52;13.05;;;;;;;;;;1791448;79;25314;-51
2023/06/14 20:50:31;;;;;;;10.75;8.10;;;;;;;;;;1791452;80;27478;-55
2023/06/14 20:52:58;;;;;;;83.70;78.20;;;;;;;;;;1791331;80;25271;-54
2023/06/14 20:55:25;;;;;;;40.03;36.70;;;;;;;;;;1791458;80;25534;-55
2023/06/14 20:57:55;;;;;;;38.33;35.25;;;;;;;;;;1791401;79;25626;-57
2023/06/14 21:00:23;;;;;;;86.12;80.45;;;;;;;;;;1791398;79;25279;-54
2023/06/14 21:02:50;;;;;;;82.85;77.25;;;;;;;;;;1791386;80;27901;-55
2023/06/14 21:05:17;;;;;;;82.15;76.65;;;;;;;;;;1791336;79;25340;-55
2023/06/14 21:07:45;;;;;;;13.53;9.25;;;;;;;;;;1771773;80;25532;-53
2023/06/14 21:10:12;;;;;;;11.85;8.30;;;;;;;;;;1791366;79;26017;-55
2023/06/14 21:12:40;;;;;;;17.77;12.98;;;;;;;;;;1791426;79;25447;-52
2023/06/14 21:15:09;;;;;;;21.65;19.82;;;;;;;;;;1791359;79;27349;-53
2023/06/14 21:17:36;;;;;;;12.43;8.55;;;;;;;;;;1791744;79;25095;-56
2023/06/14 21:20:06;;;;;;;10.68;9.45;;;;;;;;;;1792156;80;25506;-56
2023/06/14 21:22:35;;;;;;;49.50;45.98;;;;;;;;;;1792594;80;26265;-56
2023/06/14 21:25:03;;;;;;;12.47;8.70;;;;;;;;;;1792558;80;25384;-57
2023/06/14 21:27:30;;;;;;;15.48;13.43;;;;;;;;;;1791413;79;27320;-55
2023/06/14 21:29:58;;;;;;;66.37;61.98;;;;;;;;;;1791289;80;25297;-52
2023/06/14 21:32:25;;;;;;;20.48;18.62;;;;;;;;;;1791331;80;25263;-56
2023/06/14 21:34:52;;;;;;;11.20;8.10;;;;;;;;;;1791343;79;25581;-57
2023/06/14 21:37:19;;;;;;;108.03;79.27;;;;;;;;;;1791415;80;25487;-56
2023/06/14 21:39:47;;;;;;;32.90;25.23;;;;;;;;;;1791381;80;28282;-52
2023/06/14 21:42:14;;;;;;;17.07;12.30;;;;;;;;;;1791242;79;25333;-50
2023/06/14 21:44:43;;;;;;;10.35;8.55;;;;;;;;;;1791049;79;25358;-50
2023/06/14 21:47:13;;;;;;;62.17;58.08;;;;;;;;;;1796191;79;25586;-51
2023/06/14 21:49:40;;;;;;;11.83;8.60;;;;;;;;;;1797103;79;25483;-52
2023/06/14 21:52:08;;;;;;;12.30;9.20;;;;;;;;;;1797206;79;27412;-51
2023/06/14 21:54:35;;;;;;;14.30;8.63;;;;;;;;;;1797115;79;25714;-53
2023/06/14 21:57:03;;;;;;;90.17;84.28;;;;;;;;;;1797230;79;25494;-51
2023/06/14 21:59:31;;;;;;;12.78;9.23;;;;;;;;;;1797184;79;26125;-51
2023/06/14 22:01:58;;;;;;;12.43;8.83;;;;;;;;;;1797254;79;25394;-54
2023/06/14 22:04:26;;;;;;;32.25;23.95;;;;;;;;;;1797246;79;27340;-53
2023/06/14 22:06:53;;;;;;;32.35;23.20;;;;;;;;;;1797120;79;25270;-49
2023/06/14 22:09:20;;;;;;;16.25;14.30;;;;;;;;;;1797335;79;25307;-51
2023/06/14 22:11:49;;;;;;;11.50;9.63;;;;;;;;;;1797151;79;25543;-51
2023/06/14 22:14:20;;;;;;;21.40;19.57;;;;;;;;;;1797341;79;25415;-50
2023/06/14 22:16:45;;;;;;;25.48;23.12;;;;;;;;;;1796920;79;27387;-49
2023/06/14 22:19:12;;;;;;;44.80;41.30;;;;;;;;;;1797059;79;25290;-50
2023/06/14 22:21:40;;;;;;;12.70;9.60;;;;;;;;;;1797165;79;25398;-50
2023/06/14 22:24:08;;;;;;;83.20;77.47;;;;;;;;;;1797367;79;25596;-49
2023/06/14 22:26:47;;;;;;;48.42;45.00;;;;;;;;;;1797189;79;25289;-50
2023/06/14 22:29:16;;;;;;;11.97;8.55;;;;;;;;;;1797162;79;27924;-50
2023/06/14 22:31:44;;;;;;;14.00;9.38;;;;;;;;;;1797250;79;25519;-51
2023/06/14 22:34:11;;;;;;;19.07;15.85;;;;;;;;;;1797172;79;25300;-51
2023/06/14 22:36:40;;;;;;;17.40;15.58;;;;;;;;;;1781508;79;25592;-50
2023/06/14 22:39:08;;;;;;;61.60;57.05;;;;;;;;;;1797334;79;25318;-50
2023/06/14 22:41:37;;;;;;;64.92;60.55;;;;;;;;;;1797173;79;27417;-50
2023/06/14 22:44:05;;;;;;;62.60;58.28;;;;;;;;;;1797198;79;25436;-50
2023/06/14 22:46:33;;;;;;;14.78;10.48;;;;;;;;;;1793250;79;25431;-50
2023/06/14 22:49:01;;;;;;;15.03;10.75;;;;;;;;;;1791233;79;27792;-50
2023/06/14 22:51:29;;;;;;;13.40;10.80;;;;;;;;;;1791470;80;25495;-50
2023/06/14 22:53:56;;;;;;;13.00;10.55;;;;;;;;;;1791273;80;27428;-51
2023/06/14 22:56:23;;;;;;;14.00;11.33;;;;;;;;;;1791232;79;25443;-51
2023/06/14 22:58:53;;;;;;;20.52;16.50;;;;;;;;;;1791274;80;25332;-50
2023/06/14 23:01:26;;;;;;;67.90;63.02;;;;;;;;;;1790746;79;25503;-51
2023/06/14 23:03:48;;;;;;;25.15;22.45;;;;;;;;;;1789580;79;25621;-50
2023/06/14 23:06:24;;;;;;;16.87;13.13;;;;;;;;;;1790438;79;27483;-51
2023/06/14 23:08:46;;;;;;;13.25;10.58;;;;;;;;;;1790362;79;25697;-52
2023/06/14 23:11:16;;;;;;;12.68;9.70;;;;;;;;;;1791434;80;25290;-52
2023/06/14 23:13:50;;;;;;;14.53;9.83;;;;;;;;;;1791396;80;25559;-54
2023/06/14 23:16:19;;;;;;;13.25;10.23;;;;;;;;;;1791373;80;25318;-51
2023/06/14 23:18:47;;;;;;;10.75;9.38;;;;;;;;;;1791437;79;28046;-53
2023/06/14 23:21:18;;;;;;;12.95;11.55;;;;;;;;;;1791092;80;27215;-51
2023/06/14 23:23:47;;;;;;;14.95;10.90;;;;;;;;;;1791316;80;25502;-51
2023/06/14 23:26:15;;;;;;;14.68;12.82;;;;;;;;;;1791246;80;25618;-52
2023/06/14 23:28:45;;;;;;;18.57;16.67;;;;;;;;;;1791336;80;25536;-55
2023/06/14 23:31:14;;;;;;;85.90;80.00;;;;;;;;;;1791254;80;27435;-55
2023/06/14 23:33:41;;;;;;;86.57;80.47;;;;;;;;;;1791470;79;25338;-55
2023/06/14 23:36:08;;;;;;;84.32;78.52;;;;;;;;;;1791261;79;25351;-54
2023/06/14 23:38:42;;;;;;;87.72;81.15;;;;;;;;;;1791202;80;27750;-56
2023/06/14 23:41:05;;;;;;;86.42;80.12;;;;;;;;;;1789500;79;25516;-55
2023/06/14 23:43:33;;;;;;;19.37;13.78;;;;;;;;;;1791252;80;27417;-56
2023/06/14 23:46:02;;;;;;;16.77;13.50;;;;;;;;;;1791287;80;25401;-54
2023/06/14 23:48:30;;;;;;;26.77;13.95;;;;;;;;;;1791429;80;25336;-54
2023/06/14 23:50:57;;;;;;;20.72;13.15;;;;;;;;;;1791208;80;25592;-53
2023/06/14 23:53:27;;;;;;;18.27;12.25;;;;;;;;;;1791298;80;25519;-50
2023/06/14 23:55:53;;;;;;;17.00;12.23;;;;;;;;;;1790963;79;27295;-52
2023/06/14 23:58:21;;;;;;;28.95;26.33;;;;;;;;;;1790344;80;25514;-50
